OIMC

Details ICAO OIMC
Name SARAKHS
Region Iran
Timezone Asia/Tehran (UTC+4.5)
Plans Departing 1
Arriving 4
Stats Elevation 945 ft / 288 m (AMSL)
Location 36.501178° 61.064901°
Runways 1
Magnetic Variation 4.353° E
Sunrise 2018-05-22 00:45:32 UTC / 2018-05-22 05:15:32 Local
Sunset 2018-05-22 15:02:06 UTC / 2018-05-22 19:32:06 Local
Advertisement - Login to hide

Runways

ID Width Length Bearing (true) Bearing (mag) Surface Threshold Offset Overrun Length
14 148 ft / 45 m 13,089 ft / 3,989 m 145.32° 140.97° Asphalt 0 ft / 0 m 185 ft / 56 m
32 148 ft / 45 m 13,089 ft / 3,989 m 325.34° 320.99° Asphalt 0 ft / 0 m 225 ft / 69 m

Map

Weather


0- 5 10 15 20 25 30 35+ Temperature / ° C

Clouds and Precipitation
Forecast for 2018-05-22 00:00 UTC. Updated 6 hours ago

Ground ~20,000 ft ~40,000 ft Winds

METAR

OIMC 220450Z 30006KT CAVOK 30/04 Q1016

TAF

Not found
Warning: Do not use this data for real-world aviation or navigation. No guarantee of current accuracy is given.